Time;durP1;ratioP1;P1;durP2;ratioP2;P2;SDS_P1;SDS_P2;PMS_P1;PMS_P2;Temp;Humidity;BMP_temperature;BMP_pressure;BME280_temperature;BME280_humidity;BME280_pressure;Samples;Min_cycle;Max_cycle;Signal;HPM_P1;HPM_P2
2022/08/06 04:02:36;;;;;;;2.78;2.67;;;12.60;99.90;;;;;;4950715;23;20296;-69
2022/08/06 04:05:03;;;;;;;2.35;2.35;;;12.60;99.90;;;;;;4906342;29;20217;-70
2022/08/06 04:07:32;;;;;;;2.67;2.58;;;12.60;99.90;;;;;;4905975;29;20567;-69
2022/08/06 04:10:00;;;;;;;6.05;2.92;;;12.60;99.90;;;;;;4912999;29;20235;-69
2022/08/06 04:12:29;;;;;;;2.60;2.50;;;12.50;99.90;;;;;;4898336;29;20697;-69
2022/08/06 04:14:56;;;;;;;3.00;2.88;;;12.60;99.90;;;;;;4906367;29;20225;-69
2022/08/06 04:17:24;;;;;;;2.60;2.40;;;12.60;99.90;;;;;;4906006;29;20212;-68
2022/08/06 04:19:53;;;;;;;4.65;2.65;;;12.60;99.90;;;;;;4909628;29;20216;-69
2022/08/06 04:22:20;;;;;;;2.50;2.30;;;12.60;99.90;;;;;;4911455;29;20231;-70
2022/08/06 04:24:47;;;;;;;2.72;2.50;;;12.60;99.90;;;;;;4906864;29;20271;-69
2022/08/06 04:27:15;;;;;;;3.00;2.90;;;12.60;99.90;;;;;;4907538;29;20240;-69
2022/08/06 04:29:42;;;;;;;2.90;2.80;;;12.60;99.90;;;;;;4905164;29;20212;-69
2022/08/06 04:32:10;;;;;;;2.72;2.60;;;12.60;99.90;;;;;;4910993;29;20959;-69
2022/08/06 04:34:39;;;;;;;2.72;2.65;;;12.60;99.90;;;;;;4912368;29;20344;-69
2022/08/06 04:37:07;;;;;;;1.80;1.80;;;12.70;99.90;;;;;;4912297;29;20273;-69
2022/08/06 04:39:34;;;;;;;2.35;2.35;;;12.70;99.90;;;;;;4909082;29;20270;-70
2022/08/06 04:42:02;;;;;;;4.43;2.70;;;12.70;99.90;;;;;;4906274;29;20228;-70
2022/08/06 04:44:29;;;;;;;3.83;2.17;;;12.80;99.90;;;;;;4906311;29;20261;-70
2022/08/06 04:46:56;;;;;;;1.70;1.57;;;13.40;99.90;;;;;;4913491;29;20681;-70
2022/08/06 04:49:23;;;;;;;1.53;1.23;;;14.20;99.90;;;;;;4910007;29;20548;-68
2022/08/06 04:51:50;;;;;;;1.57;1.30;;;14.90;99.90;;;;;;4907316;29;20516;-70
2022/08/06 04:54:18;;;;;;;1.97;1.87;;;15.70;99.90;;;;;;4907366;29;20474;-70
2022/08/06 04:56:46;;;;;;;1.07;1.07;;;16.40;99.90;;;;;;4911780;29;20473;-70
2022/08/06 04:59:13;;;;;;;1.40;1.17;;;16.90;99.90;;;;;;4906386;29;20474;-70
2022/08/06 05:01:39;;;;;;;1.23;1.10;;;17.30;99.90;;;;;;4905105;29;20566;-70
2022/08/06 05:04:06;;;;;;;0.80;0.80;;;17.60;99.90;;;;;;4906178;29;20506;-70
2022/08/06 05:06:40;;;;;;;0.80;0.80;;;18.00;99.90;;;;;;4907933;29;20945;-70
2022/08/06 05:09:11;;;;;;;0.90;0.90;;;18.30;99.90;;;;;;4905036;29;20560;-69
2022/08/06 05:11:42;;;;;;;0.90;0.90;;;18.70;99.90;;;;;;4907784;29;20515;-69
2022/08/06 05:14:13;;;;;;;1.17;0.73;;;18.70;99.90;;;;;;4904551;29;20496;-70
2022/08/06 05:16:45;;;;;;;1.33;1.00;;;18.20;99.90;;;;;;4910587;29;20554;-70
2022/08/06 05:19:17;;;;;;;1.50;0.83;;;17.90;99.90;;;;;;4898744;29;20477;-70
2022/08/06 05:21:46;;;;;;;1.53;1.10;;;17.50;99.90;;;;;;4903309;29;21148;-69
2022/08/06 05:24:13;;;;;;;1.40;1.30;;;17.00;99.90;;;;;;4904562;29;20490;-69
2022/08/06 05:26:42;;;;;;;1.23;1.07;;;16.70;99.90;;;;;;4908986;29;20555;-68
2022/08/06 05:29:09;;;;;;;1.00;1.00;;;16.50;99.90;;;;;;4903319;29;20847;-69
2022/08/06 05:31:39;;;;;;;1.43;1.43;;;16.20;99.90;;;;;;4909066;29;20489;-69
2022/08/06 05:34:09;;;;;;;1.60;1.50;;;16.00;99.90;;;;;;4904392;29;20484;-69
2022/08/06 05:36:36;;;;;;;1.60;1.37;;;15.90;99.90;;;;;;4911101;29;20505;-69
2022/08/06 05:39:03;;;;;;;1.40;1.40;;;15.80;99.90;;;;;;4908702;29;20895;-69
2022/08/06 05:41:30;;;;;;;3.90;1.40;;;15.70;99.90;;;;;;4912450;29;21023;-69
2022/08/06 05:43:59;;;;;;;1.40;1.40;;;15.70;99.90;;;;;;4906643;29;20856;-69
2022/08/06 05:46:29;;;;;;;1.70;1.60;;;15.50;99.90;;;;;;4906779;29;21039;-70
2022/08/06 05:49:01;;;;;;;2.30;1.37;;;15.50;99.90;;;;;;4906382;29;20993;-69
2022/08/06 05:51:35;;;;;;;1.33;1.33;;;15.50;99.90;;;;;;4909325;29;20553;-71
2022/08/06 05:54:11;;;;;;;2.40;1.13;;;15.40;99.90;;;;;;4904508;29;20509;-68
2022/08/06 05:56:42;;;;;;;1.10;1.10;;;15.40;99.90;;;;;;4914223;29;20469;-70
2022/08/06 05:59:16;;;;;;;1.20;1.20;;;15.40;99.90;;;;;;4904229;29;21112;-71
2022/08/06 06:01:43;;;;;;;2.40;2.20;;;15.40;99.90;;;;;;4897492;29;20559;-70
2022/08/06 06:04:10;;;;;;;1.40;1.10;;;15.30;99.90;;;;;;4899331;29;20476;-71
2022/08/06 06:06:37;;;;;;;1.37;1.37;;;15.30;99.90;;;;;;4913852;29;20469;-69
2022/08/06 06:09:06;;;;;;;0.80;0.80;;;15.30;99.90;;;;;;4910669;29;20475;-69
2022/08/06 06:11:33;;;;;;;1.80;1.37;;;15.50;99.90;;;;;;4901792;29;20670;-69
2022/08/06 06:14:00;;;;;;;1.53;0.70;;;16.00;99.90;;;;;;4905940;29;20476;-70
2022/08/06 06:16:34;;;;;;;0.40;0.40;;;16.80;99.90;;;;;;4912301;29;20476;-71
2022/08/06 06:19:12;;;;;;;0.60;0.60;;;17.60;99.90;;;;;;4915844;29;20486;-70
2022/08/06 06:21:46;;;;;;;0.40;0.40;;;18.60;99.90;;;;;;4912267;29;20550;-69
2022/08/06 06:24:19;;;;;;;1.13;0.50;;;19.40;99.90;;;;;;4907520;29;20608;-70
2022/08/06 06:26:51;;;;;;;0.47;0.47;;;20.20;99.90;;;;;;4905246;29;20479;-70
2022/08/06 06:29:31;;;;;;;1.77;0.83;;;20.70;99.90;;;;;;4909890;29;20486;-67
2022/08/06 06:32:06;;;;;;;1.03;0.50;;;21.20;99.90;;;;;;4910114;29;20541;-69
2022/08/06 06:34:47;;;;;;;0.87;0.50;;;21.70;99.90;;;;;;4907296;29;20471;-70
2022/08/06 06:37:21;;;;;;;1.13;0.50;;;22.20;99.90;;;;;;4912014;29;20562;-70
2022/08/06 06:39:57;;;;;;;0.40;0.40;;;22.80;99.90;;;;;;4903847;29;20892;-70
2022/08/06 06:42:37;;;;;;;0.60;0.60;;;23.30;99.90;;;;;;4901746;29;20490;-69
2022/08/06 06:45:12;;;;;;;0.90;0.50;;;23.70;99.90;;;;;;4906852;29;20466;-70
2022/08/06 06:47:50;;;;;;;0.97;0.60;;;23.60;99.90;;;;;;4909656;29;20473;-70
2022/08/06 06:50:22;;;;;;;0.60;0.40;;;23.70;99.90;;;;;;4907165;29;20831;-70
2022/08/06 06:52:51;;;;;;;0.30;0.30;;;23.80;99.90;;;;;;4916774;29;20604;-70
2022/08/06 06:55:24;;;;;;;0.47;0.47;;;24.00;99.90;;;;;;4914861;29;20471;-69
2022/08/06 06:57:53;;;;;;;1.83;0.50;;;24.20;99.90;;;;;;4913682;29;20479;-70
2022/08/06 07:00:20;;;;;;;0.83;0.43;;;24.40;99.90;;;;;;4913013;29;20531;-69
2022/08/06 07:02:51;;;;;;;0.50;0.40;;;24.60;99.90;;;;;;4912540;29;21200;-70
2022/08/06 07:05:20;;;;;;;0.67;0.67;;;24.60;99.90;;;;;;4907215;29;20571;-69
2022/08/06 07:07:48;;;;;;;0.50;0.30;;;24.70;99.90;;;;;;4914273;29;20973;-67
2022/08/06 07:10:16;;;;;;;1.00;0.50;;;25.00;99.90;;;;;;4915885;29;20490;-67
2022/08/06 07:12:45;;;;;;;0.43;0.43;;;25.40;99.90;;;;;;4910402;29;20474;-67
2022/08/06 07:15:15;;;;;;;0.87;0.43;;;25.60;99.80;;;;;;4912177;29;20470;-67
2022/08/06 07:17:43;;;;;;;0.20;0.20;;;25.60;99.90;;;;;;4897636;29;20478;-67
2022/08/06 07:20:13;;;;;;;0.67;0.50;;;25.70;98.70;;;;;;4905506;29;20481;-67
2022/08/06 07:22:43;;;;;;;0.93;0.40;;;25.70;98.40;;;;;;4908564;29;20491;-67
2022/08/06 07:25:13;;;;;;;0.80;0.40;;;25.60;98.90;;;;;;4915465;29;20480;-67
2022/08/06 07:27:41;;;;;;;0.63;0.50;;;25.90;99.00;;;;;;4914321;29;20528;-67
2022/08/06 07:30:10;;;;;;;0.87;0.40;;;26.00;98.00;;;;;;4913125;29;20855;-67
2022/08/06 07:32:38;;;;;;;1.07;0.40;;;26.40;98.00;;;;;;4908000;29;20541;-67
2022/08/06 07:35:09;;;;;;;0.70;0.50;;;26.10;96.90;;;;;;4915543;29;20537;-67
2022/08/06 07:37:41;;;;;;;0.80;0.70;;;25.40;97.50;;;;;;4915468;29;20463;-67
2022/08/06 07:40:12;;;;;;;2.30;0.70;;;24.80;98.70;;;;;;4915759;29;20842;-66
2022/08/06 07:42:40;;;;;;;2.47;0.77;;;24.00;99.60;;;;;;4909086;29;20507;-67
2022/08/06 07:45:10;;;;;;;0.60;0.60;;;23.50;99.90;;;;;;4908980;29;20475;-68
2022/08/06 07:47:43;;;;;;;1.13;0.70;;;23.30;99.90;;;;;;4907761;29;20892;-69
2022/08/06 07:50:13;;;;;;;0.70;0.70;;;23.20;99.90;;;;;;4904106;29;20535;-69
2022/08/06 07:52:43;;;;;;;1.00;1.00;;;22.90;99.90;;;;;;4901130;29;20467;-68
2022/08/06 07:55:11;;;;;;;0.67;0.57;;;22.70;99.90;;;;;;4907858;29;20472;-68
2022/08/06 07:57:39;;;;;;;0.50;0.50;;;22.30;99.90;;;;;;4912399;29;20989;-68
2022/08/06 08:00:07;;;;;;;0.83;0.83;;;21.80;99.90;;;;;;4915876;29;20938;-68
2022/08/06 08:02:34;;;;;;;0.80;0.80;;;21.40;99.90;;;;;;4913903;29;20501;-68
2022/08/06 08:07:55;;;;;;;1.97;0.93;;;20.80;99.90;;;;;;4880073;29;20463;-69
2022/08/06 08:10:22;;;;;;;0.80;0.70;;;20.70;99.90;;;;;;4910155;29;20465;-69
2022/08/06 08:12:49;;;;;;;0.80;0.60;;;20.70;99.90;;;;;;4914683;29;20481;-69
2022/08/06 08:15:17;;;;;;;0.93;0.70;;;20.60;99.90;;;;;;4908036;29;21137;-69
2022/08/06 08:17:43;;;;;;;0.50;0.50;;;20.20;99.90;;;;;;4914042;29;20484;-69
2022/08/06 08:20:11;;;;;;;0.77;0.77;;;20.10;99.90;;;;;;4912653;29;20471;-69
2022/08/06 08:22:39;;;;;;;1.60;0.70;;;19.90;99.90;;;;;;4910350;29;20501;-69
2022/08/06 08:25:09;;;;;;;0.93;0.90;;;19.70;99.90;;;;;;4912037;29;20471;-69
2022/08/06 08:27:35;;;;;;;1.60;0.87;;;19.70;99.90;;;;;;4911723;29;20936;-68
2022/08/06 08:30:02;;;;;;;0.90;0.80;;;19.80;99.90;;;;;;4907861;29;20841;-68
2022/08/06 08:32:29;;;;;;;0.97;0.80;;;19.80;99.90;;;;;;4913470;29;20483;-68
2022/08/06 08:34:55;;;;;;;2.00;0.73;;;19.80;99.90;;;;;;4904370;29;20481;-68
2022/08/06 08:37:22;;;;;;;0.60;0.60;;;19.70;99.90;;;;;;4909830;29;20481;-67
2022/08/06 08:39:49;;;;;;;0.70;0.70;;;19.80;99.90;;;;;;4906737;29;20497;-68
2022/08/06 08:42:19;;;;;;;1.27;0.53;;;19.80;99.90;;;;;;4909545;29;20506;-68
2022/08/06 08:44:49;;;;;;;1.27;1.17;;;19.90;99.90;;;;;;4913586;29;20874;-67
2022/08/06 08:47:18;;;;;;;0.40;0.40;;;19.70;99.90;;;;;;4909656;29;20478;-67
2022/08/06 08:49:48;;;;;;;1.03;1.03;;;19.70;99.90;;;;;;4912655;29;20497;-67
2022/08/06 08:52:19;;;;;;;0.90;0.90;;;19.50;99.90;;;;;;4911893;29;21020;-68
2022/08/06 08:54:49;;;;;;;0.70;0.70;;;19.50;99.90;;;;;;4913885;29;20531;-67
2022/08/06 08:57:19;;;;;;;3.27;1.20;;;19.70;99.90;;;;;;4906616;29;20467;-68
2022/08/06 08:59:46;;;;;;;1.50;0.70;;;19.80;99.90;;;;;;4905593;29;20478;-66
2022/08/06 09:02:14;;;;;;;2.07;0.60;;;19.90;99.90;;;;;;4908080;29;20496;-69
2022/08/06 09:04:41;;;;;;;0.83;0.60;;;19.80;99.90;;;;;;4901642;29;20486;-67
2022/08/06 09:07:09;;;;;;;0.87;0.87;;;19.70;99.90;;;;;;4911321;29;20859;-66
2022/08/06 09:09:38;;;;;;;0.93;0.67;;;19.80;99.90;;;;;;4907836;29;20471;-69
2022/08/06 09:12:05;;;;;;;0.73;0.73;;;19.80;99.90;;;;;;4898992;29;20528;-68
2022/08/06 09:14:34;;;;;;;0.60;0.60;;;19.90;99.90;;;;;;4909352;29;20471;-67
2022/08/06 09:17:02;;;;;;;1.03;0.50;;;20.10;99.90;;;;;;4902490;29;20476;-67
2022/08/06 09:19:29;;;;;;;1.13;0.70;;;20.40;99.90;;;;;;4905527;29;20562;-67
2022/08/06 09:21:56;;;;;;;0.83;0.83;;;20.50;99.90;;;;;;4906619;29;20575;-67
2022/08/06 09:24:23;;;;;;;0.57;0.57;;;20.60;99.90;;;;;;4907369;29;20495;-67
2022/08/06 09:27:05;;;;;;;3.57;0.90;;;20.60;99.90;;;;;;4903807;29;20902;-68
2022/08/06 09:29:34;;;;;;;1.90;1.07;;;20.40;99.90;;;;;;4911620;29;20471;-69
2022/08/06 09:32:03;;;;;;;0.77;0.60;;;20.30;99.90;;;;;;4909747;29;21117;-68
2022/08/06 09:34:36;;;;;;;0.70;0.70;;;20.20;99.90;;;;;;4910756;29;20554;-69
2022/08/06 09:37:03;;;;;;;0.90;0.90;;;20.20;99.90;;;;;;4907313;29;20587;-69
2022/08/06 09:39:35;;;;;;;0.43;0.43;;;20.00;99.90;;;;;;4902950;29;20475;-69
2022/08/06 09:42:02;;;;;;;0.60;0.50;;;20.00;99.90;;;;;;4903661;29;20500;-69
2022/08/06 09:44:28;;;;;;;1.57;0.67;;;19.90;99.90;;;;;;4903297;29;20928;-69
2022/08/06 09:46:57;;;;;;;0.67;0.60;;;20.00;99.90;;;;;;4910398;29;20471;-69
2022/08/06 09:49:24;;;;;;;0.83;0.80;;;20.20;99.90;;;;;;4908903;29;20480;-69
2022/08/06 09:51:51;;;;;;;0.50;0.50;;;20.40;99.90;;;;;;4915999;29;20487;-69
2022/08/06 09:54:19;;;;;;;1.80;0.70;;;20.50;99.90;;;;;;4912082;29;20475;-69
2022/08/06 09:56:56;;;;;;;1.03;0.73;;;20.70;99.90;;;;;;4917631;29;20956;-69
2022/08/06 09:59:23;;;;;;;2.67;1.17;;;20.70;99.90;;;;;;4913182;29;20491;-69
2022/08/06 10:01:50;;;;;;;0.40;0.40;;;20.80;99.90;;;;;;4917702;29;20599;-68
2022/08/06 10:04:26;;;;;;;0.70;0.70;;;20.90;99.90;;;;;;4914225;29;20511;-68
2022/08/06 10:06:55;;;;;;;0.97;0.80;;;20.80;99.90;;;;;;4911234;29;20475;-68
2022/08/06 10:09:23;;;;;;;0.70;0.70;;;20.70;99.90;;;;;;4910319;29;20552;-68
2022/08/06 10:11:49;;;;;;;0.63;0.40;;;20.60;99.90;;;;;;4911193;29;20522;-69
2022/08/06 10:14:24;;;;;;;0.60;0.60;;;20.40;99.90;;;;;;4908026;29;20980;-68
2022/08/06 10:17:08;;;;;;;0.70;0.70;;;20.40;99.90;;;;;;4902058;29;20467;-68
2022/08/06 10:19:36;;;;;;;0.50;0.50;;;20.30;99.90;;;;;;4903671;29;21017;-69
2022/08/06 10:22:07;;;;;;;1.20;0.70;;;20.30;99.90;;;;;;4903593;29;21025;-69
2022/08/06 10:24:37;;;;;;;0.40;0.40;;;20.30;99.90;;;;;;4906005;29;20482;-69
2022/08/06 10:27:07;;;;;;;0.60;0.50;;;20.30;99.90;;;;;;4909005;29;20488;-69
2022/08/06 10:29:36;;;;;;;0.73;0.50;;;20.30;99.90;;;;;;4913631;23;20503;-66
2022/08/06 10:32:04;;;;;;;0.53;0.53;;;20.30;99.90;;;;;;4878250;29;20940;-66
2022/08/06 10:34:33;;;;;;;0.70;0.70;;;20.50;99.90;;;;;;4872938;29;20531;-66
2022/08/06 10:37:07;;;;;;;1.07;0.60;;;20.60;99.90;;;;;;4872246;29;20476;-67
2022/08/06 10:39:38;;;;;;;1.20;0.50;;;20.50;99.90;;;;;;4874053;29;20514;-66
2022/08/06 10:42:08;;;;;;;1.23;0.70;;;20.50;99.90;;;;;;4875676;29;20472;-66
2022/08/06 10:44:37;;;;;;;0.67;0.67;;;20.60;99.90;;;;;;4877791;29;20503;-69
2022/08/06 10:47:05;;;;;;;0.37;0.37;;;20.60;99.90;;;;;;4878294;29;20601;-67
2022/08/06 10:49:33;;;;;;;0.60;0.60;;;20.60;99.90;;;;;;4875501;29;20500;-67
2022/08/06 10:52:01;;;;;;;0.40;0.40;;;20.70;99.90;;;;;;4871689;29;20576;-68
2022/08/06 10:54:28;;;;;;;0.50;0.50;;;20.70;99.90;;;;;;4871782;29;20501;-67
2022/08/06 10:56:56;;;;;;;0.50;0.50;;;20.70;99.90;;;;;;4881984;29;20811;-66
2022/08/06 10:59:23;;;;;;;0.50;0.50;;;20.80;99.90;;;;;;4877473;29;20501;-66
2022/08/06 11:02:02;;;;;;;0.83;0.50;;;21.00;99.90;;;;;;4876873;29;20560;-66
2022/08/06 11:04:42;;;;;;;1.00;0.80;;;21.10;99.90;;;;;;4875325;29;20920;-67
2022/08/06 11:07:42;;;;;;;0.70;0.70;;;21.10;99.90;;;;;;4874153;29;20553;-66
2022/08/06 11:10:27;;;;;;;0.70;0.70;;;21.10;99.90;;;;;;4874517;29;20891;-68
2022/08/06 11:12:59;;;;;;;0.50;0.50;;;20.90;99.90;;;;;;4876084;29;20487;-69
2022/08/06 11:15:26;;;;;;;0.70;0.70;;;20.80;99.90;;;;;;4877938;29;20814;-69
2022/08/06 11:17:55;;;;;;;2.70;0.80;;;20.90;99.90;;;;;;4878352;29;20473;-68
2022/08/06 11:20:41;;;;;;;1.90;0.50;;;20.90;99.90;;;;;;4876944;29;20568;-69
2022/08/06 11:23:26;;;;;;;1.07;0.53;;;20.80;99.90;;;;;;4874775;29;20904;-69
2022/08/06 11:25:55;;;;;;;1.03;0.90;;;20.80;99.90;;;;;;4875562;29;20483;-67
2022/08/06 11:28:57;;;;;;;1.50;0.83;;;20.60;99.90;;;;;;4873952;29;20501;-66
2022/08/06 11:31:38;;;;;;;0.50;0.50;;;20.80;99.90;;;;;;4877108;29;20551;-66
2022/08/06 11:34:09;;;;;;;0.60;0.60;;;20.80;99.90;;;;;;4875512;29;20477;-66
2022/08/06 11:36:54;;;;;;;0.40;0.33;;;20.90;99.90;;;;;;4877433;29;20469;-66
2022/08/06 11:39:24;;;;;;;1.33;0.63;;;20.90;99.90;;;;;;4875782;29;20569;-66
2022/08/06 11:42:03;;;;;;;4.13;0.67;;;20.90;99.00;;;;;;4878733;29;20539;-66
2022/08/06 11:44:32;;;;;;;0.60;0.57;;;21.00;99.90;;;;;;4876734;29;20505;-66
2022/08/06 11:47:16;;;;;;;0.50;0.50;;;21.20;99.90;;;;;;4878304;29;20496;-66
2022/08/06 11:49:45;;;;;;;1.50;0.60;;;21.30;99.90;;;;;;4875742;29;20521;-66
2022/08/06 11:52:44;;;;;;;0.90;0.50;;;21.40;99.90;;;;;;4878484;29;20470;-66
2022/08/06 11:55:15;;;;;;;2.07;1.33;;;21.60;99.90;;;;;;4874150;29;20484;-66
2022/08/06 11:57:43;;;;;;;0.77;0.57;;;21.70;99.90;;;;;;4860799;29;20478;-66
2022/08/06 12:00:22;;;;;;;1.10;0.70;;;21.50;99.90;;;;;;4877739;29;20996;-66
2022/08/06 12:02:59;;;;;;;0.57;0.57;;;21.50;99.90;;;;;;4859193;29;20472;-66
2022/08/06 12:05:39;;;;;;;0.70;0.70;;;21.40;99.90;;;;;;4876418;29;20503;-66
2022/08/06 12:08:28;;;;;;;1.37;0.87;;;21.40;99.90;;;;;;4876625;29;20478;-66
2022/08/06 12:11:27;;;;;;;0.70;0.70;;;21.40;99.90;;;;;;4872082;29;20470;-66
2022/08/06 12:13:54;;;;;;;0.63;0.63;;;21.40;99.90;;;;;;4876392;29;20915;-67
2022/08/06 12:16:35;;;;;;;0.70;0.70;;;;;;;;;;4876612;29;20477;-67
2022/08/06 12:19:02;;;;;;;0.30;0.30;;;21.60;99.90;;;;;;4876722;29;20526;-68
2022/08/06 12:21:29;;;;;;;0.70;0.70;;;21.60;99.90;;;;;;4876727;29;20482;-68
2022/08/06 12:23:56;;;;;;;0.77;0.60;;;21.70;99.90;;;;;;4870894;29;20600;-68
2022/08/06 12:26:24;;;;;;;1.30;0.57;;;21.80;99.90;;;;;;4877512;29;20476;-68
2022/08/06 12:28:51;;;;;;;0.50;0.50;;;21.80;99.90;;;;;;4874461;29;20918;-68
2022/08/06 12:31:33;;;;;;;2.60;0.73;;;21.80;99.90;;;;;;4877590;29;20489;-67
2022/08/06 12:34:00;;;;;;;2.03;0.97;;;21.80;99.90;;;;;;4876790;29;20464;-67
2022/08/06 12:36:29;;;;;;;1.90;0.70;;;21.70;99.90;;;;;;4875224;29;20561;-67
2022/08/06 12:38:56;;;;;;;0.50;0.50;;;21.50;99.90;;;;;;4876539;29;20517;-67
2022/08/06 12:41:32;;;;;;;1.50;0.83;;;21.20;99.90;;;;;;4875371;29;20621;-67
2022/08/06 12:43:58;;;;;;;0.93;0.83;;;21.10;99.90;;;;;;4877101;29;20560;-67
2022/08/06 12:46:25;;;;;;;1.37;0.87;;;21.00;99.90;;;;;;4876640;29;20480;-68
2022/08/06 12:48:52;;;;;;;2.20;1.23;;;20.90;99.90;;;;;;4876945;29;21005;-67
2022/08/06 12:51:19;;;;;;;0.90;0.90;;;20.80;99.90;;;;;;4876329;29;20967;-67
2022/08/06 12:53:49;;;;;;;0.83;0.83;;;20.80;99.90;;;;;;4875877;29;20490;-68
2022/08/06 12:56:16;;;;;;;1.20;1.17;;;20.80;99.90;;;;;;4876275;29;20560;-68
2022/08/06 12:58:45;;;;;;;0.87;0.87;;;20.90;99.90;;;;;;4877169;29;20537;-67
2022/08/06 13:01:15;;;;;;;1.37;1.37;;;21.00;99.90;;;;;;4875925;29;20483;-68
2022/08/06 13:03:47;;;;;;;1.80;1.20;;;20.90;99.90;;;;;;4869258;29;20481;-67
2022/08/06 13:06:17;;;;;;;1.07;1.07;;;21.20;99.90;;;;;;4875888;29;20941;-67
2022/08/06 13:08:46;;;;;;;1.17;1.07;;;21.20;99.90;;;;;;4875640;29;20581;-68
2022/08/06 13:11:13;;;;;;;1.10;1.10;;;21.30;99.90;;;;;;4876408;29;20570;-68
2022/08/06 13:13:42;;;;;;;1.53;1.40;;;21.40;99.90;;;;;;4876976;29;20552;-68
2022/08/06 13:16:12;;;;;;;1.40;1.30;;;21.50;99.90;;;;;;4875402;29;20481;-68
2022/08/06 13:18:40;;;;;;;1.30;1.30;;;21.50;99.90;;;;;;4876995;29;20490;-67
2022/08/06 13:21:17;;;;;;;0.80;0.80;;;21.60;99.90;;;;;;4873797;29;20482;-67
2022/08/06 13:23:47;;;;;;;1.07;0.93;;;21.40;99.90;;;;;;4869953;29;20817;-67
2022/08/06 13:26:15;;;;;;;1.27;1.17;;;21.40;99.90;;;;;;4876465;29;20520;-67
2022/08/06 13:29:07;;;;;;;1.17;0.73;;;21.40;99.90;;;;;;4875570;29;20507;-67
2022/08/06 13:31:35;;;;;;;0.80;0.80;;;21.40;98.70;;;;;;4875826;29;20556;-67
2022/08/06 13:34:04;;;;;;;1.70;1.10;;;21.40;98.80;;;;;;4876133;29;20665;-67
2022/08/06 13:36:32;;;;;;;1.43;1.20;;;21.60;98.60;;;;;;4877604;29;20826;-68
2022/08/06 13:39:03;;;;;;;1.50;1.03;;;21.80;98.60;;;;;;4878078;29;20497;-67
2022/08/06 13:41:32;;;;;;;2.10;2.00;;;22.00;98.10;;;;;;4876984;29;20483;-68
2022/08/06 13:43:59;;;;;;;2.13;2.00;;;22.00;97.50;;;;;;4876706;29;21084;-67
2022/08/06 13:46:28;;;;;;;1.87;1.70;;;21.70;97.20;;;;;;4875397;29;20474;-67
2022/08/06 13:48:58;;;;;;;1.40;1.40;;;21.60;96.40;;;;;;4876233;29;20553;-67
2022/08/06 13:51:25;;;;;;;2.20;2.10;;;21.50;96.50;;;;;;4876271;29;20520;-67
2022/08/06 13:53:52;;;;;;;2.07;1.97;;;21.40;96.90;;;;;;4876064;29;20536;-68
2022/08/06 13:56:19;;;;;;;2.20;2.10;;;21.40;97.20;;;;;;4875673;29;20481;-67
2022/08/06 13:58:45;;;;;;;2.03;2.03;;;21.30;97.10;;;;;;4876178;29;20528;-67
2022/08/06 14:01:12;;;;;;;2.20;2.10;;;21.30;97.10;;;;;;4873475;29;20584;-67
2022/08/06 14:03:39;;;;;;;2.80;1.90;;;21.50;97.80;;;;;;4875554;29;20476;-67
2022/08/06 14:06:08;;;;;;;1.70;1.53;;;21.70;98.30;;;;;;4875232;29;20502;-67
2022/08/06 14:08:35;;;;;;;2.10;2.10;;;21.70;97.60;;;;;;4875751;29;20547;-67
2022/08/06 14:11:02;;;;;;;2.53;2.40;;;21.60;97.70;;;;;;4875519;29;21002;-67
2022/08/06 14:13:29;;;;;;;2.30;2.20;;;21.50;97.50;;;;;;4875767;29;20476;-67
2022/08/06 14:15:56;;;;;;;2.40;2.30;;;21.40;97.80;;;;;;4874863;29;20470;-67
2022/08/06 14:18:23;;;;;;;2.40;2.40;;;21.50;98.20;;;;;;4874485;29;20580;-68
2022/08/06 14:20:49;;;;;;;2.70;2.60;;;21.60;97.80;;;;;;4874958;29;20557;-67
2022/08/06 14:23:18;;;;;;;3.13;2.93;;;21.60;96.90;;;;;;4875948;29;20472;-68
2022/08/06 14:25:45;;;;;;;2.23;2.20;;;21.70;97.20;;;;;;4873047;29;20506;-67
2022/08/06 14:28:11;;;;;;;2.63;2.43;;;21.80;96.90;;;;;;4876035;29;20488;-67
2022/08/06 14:30:38;;;;;;;2.00;2.00;;;21.90;96.90;;;;;;4875465;29;20850;-67
2022/08/06 14:33:08;;;;;;;2.97;2.77;;;21.90;96.10;;;;;;4874950;29;20983;-67
2022/08/06 14:35:35;;;;;;;2.80;2.70;;;21.90;96.80;;;;;;4874769;29;20482;-67
2022/08/06 14:38:02;;;;;;;2.10;2.10;;;21.80;96.00;;;;;;4879078;29;20520;-67
2022/08/06 14:46:08;;;;;;;2.13;2.10;;;21.80;96.30;;;;;;4869556;29;20518;-67
2022/08/06 14:48:35;;;;;;;2.70;2.70;;;21.90;96.10;;;;;;4877387;29;20576;-67
2022/08/06 14:51:02;;;;;;;2.90;2.80;;;21.90;95.30;;;;;;4872902;29;20477;-67
2022/08/06 14:53:29;;;;;;;3.20;3.00;;;21.90;95.60;;;;;;4876007;29;20573;-66
2022/08/06 14:55:57;;;;;;;3.00;2.80;;;21.90;94.90;;;;;;4876590;29;20540;-66
2022/08/06 14:58:23;;;;;;;2.70;2.60;;;21.80;95.10;;;;;;4878864;29;20511;-66
2022/08/06 15:00:51;;;;;;;2.90;2.77;;;22.00;95.10;;;;;;4877107;29;20478;-67
2022/08/06 15:03:18;;;;;;;5.40;3.50;;;22.00;94.70;;;;;;4876438;29;20551;-66
2022/08/06 15:05:46;;;;;;;3.17;2.90;;;22.10;95.40;;;;;;4877282;29;20498;-67
2022/08/06 15:08:13;;;;;;;3.50;3.20;;;21.90;94.30;;;;;;4876395;29;20555;-67
2022/08/06 15:10:39;;;;;;;3.77;3.57;;;21.80;94.50;;;;;;4875570;29;20477;-67
2022/08/06 15:13:07;;;;;;;3.13;3.03;;;21.80;94.50;;;;;;4875440;29;20478;-67
2022/08/06 15:15:34;;;;;;;3.47;3.23;;;21.80;93.60;;;;;;4877129;29;20959;-67
2022/08/06 15:18:01;;;;;;;3.27;3.07;;;21.80;93.50;;;;;;4878655;29;20471;-67
2022/08/06 15:20:27;;;;;;;3.70;3.40;;;21.80;93.60;;;;;;4877106;29;20770;-67
2022/08/06 15:22:54;;;;;;;3.80;3.60;;;21.60;93.70;;;;;;4877954;29;20575;-66
2022/08/06 15:25:21;;;;;;;3.73;3.63;;;21.60;94.30;;;;;;4876875;29;21049;-67
2022/08/06 15:27:48;;;;;;;3.83;3.73;;;21.60;93.90;;;;;;4876103;29;20885;-67
2022/08/06 15:30:17;;;;;;;3.77;3.60;;;21.70;93.60;;;;;;4877865;29;20547;-67
2022/08/06 15:32:43;;;;;;;4.57;4.20;;;21.80;93.80;;;;;;4876668;29;20911;-67
2022/08/06 15:35:10;;;;;;;4.50;3.60;;;21.90;94.00;;;;;;4875673;29;20500;-67
2022/08/06 15:37:37;;;;;;;4.30;4.10;;;21.90;94.10;;;;;;4874653;29;20483;-67
2022/08/06 15:40:04;;;;;;;3.70;3.20;;;21.90;94.60;;;;;;4875034;29;20869;-66
2022/08/06 15:42:31;;;;;;;4.17;3.87;;;21.90;93.50;;;;;;4873108;29;20473;-66
2022/08/06 15:44:58;;;;;;;3.27;3.07;;;22.00;93.40;;;;;;4872651;29;20493;-67
2022/08/06 15:47:26;;;;;;;3.10;3.00;;;22.00;93.10;;;;;;4874180;29;20852;-66
2022/08/06 15:49:52;;;;;;;2.80;2.70;;;22.10;91.00;;;;;;4875896;29;20507;-67
2022/08/06 15:52:19;;;;;;;3.40;3.20;;;22.10;90.00;;;;;;4877134;29;20906;-66
2022/08/06 15:54:46;;;;;;;3.00;2.90;;;22.10;88.90;;;;;;4875519;29;20851;-67
2022/08/06 15:57:13;;;;;;;3.30;3.20;;;22.20;89.50;;;;;;4874134;29;20489;-66
2022/08/06 15:59:40;;;;;;;3.03;2.90;;;22.30;90.30;;;;;;4875234;29;20527;-66
2022/08/06 16:02:06;;;;;;;2.70;2.60;;;22.30;90.00;;;;;;4876263;29;20477;-66
2022/08/06 16:04:35;;;;;;;3.57;3.27;;;22.20;89.10;;;;;;4874224;29;20469;-67
2022/08/06 16:07:02;;;;;;;3.70;3.50;;;22.20;90.20;;;;;;4878606;29;20528;-67
2022/08/06 16:09:28;;;;;;;3.00;2.90;;;22.20;89.40;;;;;;4877229;29;20525;-66
2022/08/06 16:11:55;;;;;;;3.00;2.80;;;22.10;87.80;;;;;;4877837;29;20473;-66
2022/08/06 16:14:22;;;;;;;3.40;3.30;;;22.00;87.40;;;;;;4876450;29;20480;-66
2022/08/06 16:16:48;;;;;;;2.90;2.60;;;22.20;87.90;;;;;;4874806;29;20477;-67
2022/08/06 16:19:16;;;;;;;2.60;2.50;;;22.10;86.20;;;;;;4875695;29;20504;-67
2022/08/06 16:21:44;;;;;;;2.60;2.60;;;22.20;85.10;;;;;;4875387;29;20506;-67
2022/08/06 16:24:11;;;;;;;2.60;2.57;;;22.20;86.10;;;;;;4875908;29;20470;-67
2022/08/06 16:26:39;;;;;;;2.60;2.50;;;22.20;85.50;;;;;;4869337;29;20584;-67
2022/08/06 16:29:05;;;;;;;2.40;2.40;;;22.20;82.80;;;;;;4871589;29;20509;-67
2022/08/06 16:31:32;;;;;;;2.60;2.13;;;22.30;83.20;;;;;;4874005;29;20574;-67
2022/08/06 16:33:59;;;;;;;3.07;2.87;;;22.30;82.50;;;;;;4872382;29;20527;-67
2022/08/06 16:36:25;;;;;;;2.40;2.30;;;22.30;83.20;;;;;;4875730;29;20469;-66
2022/08/06 16:38:53;;;;;;;3.23;2.93;;;22.20;84.30;;;;;;4872042;29;20494;-66
2022/08/06 16:41:20;;;;;;;2.77;2.57;;;22.20;84.80;;;;;;4870484;29;20585;-67
2022/08/06 16:43:49;;;;;;;2.87;2.80;;;22.30;85.40;;;;;;4878908;29;20480;-66
2022/08/06 16:46:16;;;;;;;3.33;3.13;;;22.30;85.30;;;;;;4878915;29;20493;-67
2022/08/06 16:48:42;;;;;;;3.40;3.30;;;22.30;85.70;;;;;;4876185;29;20565;-67
2022/08/06 16:51:14;;;;;;;2.90;2.87;;;22.30;85.90;;;;;;4872356;29;20538;-68
2022/08/06 16:53:41;;;;;;;3.13;2.93;;;22.30;86.00;;;;;;4874915;29;20541;-67
2022/08/06 16:56:09;;;;;;;3.37;3.07;;;22.20;83.50;;;;;;4874396;29;20473;-68
2022/08/06 16:58:36;;;;;;;2.40;2.40;;;22.20;83.90;;;;;;4872294;29;20497;-68
2022/08/06 17:01:04;;;;;;;2.83;2.73;;;22.10;84.70;;;;;;4875000;29;20962;-67
2022/08/06 17:03:31;;;;;;;3.00;2.90;;;22.10;83.10;;;;;;4874060;29;20485;-66
2022/08/06 17:05:58;;;;;;;3.73;3.60;;;22.20;82.90;;;;;;4873090;29;21043;-68
2022/08/06 17:08:25;;;;;;;3.63;3.40;;;22.10;83.10;;;;;;4875212;29;21058;-70
2022/08/06 17:10:52;;;;;;;2.77;2.67;;;22.20;83.70;;;;;;4875151;29;20501;-67